Time;durP1;ratioP1;P1;durP2;ratioP2;P2;SDS_P1;SDS_P2;PMS_P1;PMS_P2;Temp;Humidity;BMP_temperature;BMP_pressure;BME280_temperature;BME280_humidity;BME280_pressure;Samples;Min_cycle;Max_cycle;Signal;HPM_P1;HPM_P2
2022/07/19 00:03:48;;;;;;;4.93;3.20;;;13.50;1.00;;;;;;8339509;28;20263;-66
2022/07/19 00:07:48;;;;;;;5.97;2.67;;;13.40;1.00;;;;;;8347328;28;20180;-65
2022/07/19 00:11:50;;;;;;;4.27;2.47;;;13.40;1.00;;;;;;8321441;28;20198;-70
2022/07/19 00:15:50;;;;;;;5.17;2.63;;;13.40;1.00;;;;;;8322511;28;20190;-65
2022/07/19 00:19:51;;;;;;;7.67;3.90;;;13.50;1.00;;;;;;8336760;28;20199;-65
2022/07/19 00:23:52;;;;;;;6.00;3.13;;;13.50;1.00;;;;;;8319202;28;20193;-70
2022/07/19 00:27:53;;;;;;;4.20;2.90;;;13.50;1.00;;;;;;8337233;28;20264;-66
2022/07/19 00:31:53;;;;;;;6.60;3.00;;;13.60;1.00;;;;;;8332382;28;20600;-65
2022/07/19 00:35:54;;;;;;;4.23;3.10;;;13.60;1.00;;;;;;8337627;28;20189;-64
2022/07/19 00:39:55;;;;;;;7.37;3.07;;;13.70;1.00;;;;;;8324810;28;20280;-63
2022/07/19 00:43:57;;;;;;;6.77;3.17;;;13.80;1.00;;;;;;8333717;28;20304;-66
2022/07/19 00:47:57;;;;;;;5.30;3.10;;;13.80;1.00;;;;;;8318035;28;20189;-65
2022/07/19 00:52:00;;;;;;;4.07;2.70;;;13.70;55.20;;;;;;8320975;28;20241;-65
2022/07/19 00:56:04;;;;;;;6.53;3.07;;;13.60;99.50;;;;;;8323503;28;20188;-65
2022/07/19 01:00:08;;;;;;;3.77;2.93;;;13.50;99.90;;;;;;8316032;28;20213;-65
2022/07/19 01:04:10;;;;;;;3.97;2.90;;;13.40;99.90;;;;;;8345521;28;20223;-65
2022/07/19 01:08:11;;;;;;;6.27;3.20;;;13.40;99.90;;;;;;8321107;28;20270;-65
2022/07/19 01:12:12;;;;;;;6.77;3.60;;;13.30;99.90;;;;;;8347992;28;20280;-64
2022/07/19 01:16:13;;;;;;;7.13;4.70;;;13.20;99.90;;;;;;8314194;28;20191;-65
2022/07/19 01:20:19;;;;;;;8.23;5.37;;;13.20;99.90;;;;;;8336600;28;20207;-65
2022/07/19 01:24:20;;;;;;;8.77;4.67;;;13.20;99.90;;;;;;8315540;28;20251;-64
2022/07/19 01:28:21;;;;;;;9.47;4.87;;;13.20;99.90;;;;;;8339301;28;20190;-64
2022/07/19 01:32:21;;;;;;;7.73;5.17;;;13.20;1.00;;;;;;8331898;28;20232;-65
2022/07/19 01:36:22;;;;;;;7.97;4.93;;;13.20;1.00;;;;;;8319415;28;20192;-65
2022/07/19 01:40:23;;;;;;;7.13;4.47;;;13.20;1.00;;;;;;8334101;28;20252;-65
2022/07/19 01:44:24;;;;;;;8.93;4.67;;;13.20;1.00;;;;;;8331503;28;20186;-64
2022/07/19 01:48:25;;;;;;;8.77;4.70;;;13.20;1.00;;;;;;8349380;28;20214;-64
2022/07/19 01:52:26;;;;;;;8.30;4.93;;;13.10;1.00;;;;;;8332882;28;20253;-66
2022/07/19 01:56:27;;;;;;;7.23;4.67;;;13.10;54.00;;;;;;8315005;28;20199;-64
2022/07/19 02:00:28;;;;;;;6.43;4.00;;;13.10;99.90;;;;;;8314674;28;20216;-64
2022/07/19 02:04:28;;;;;;;6.67;4.30;;;13.00;99.90;;;;;;8328991;28;20192;-65
2022/07/19 02:08:29;;;;;;;6.50;4.07;;;12.90;99.90;;;;;;8312018;28;20189;-65
2022/07/19 02:12:30;;;;;;;5.00;3.60;;;12.80;99.90;;;;;;8312743;28;20182;-65
2022/07/19 02:16:31;;;;;;;7.23;3.70;;;12.70;99.90;;;;;;8314598;28;20241;-65
2022/07/19 02:20:32;;;;;;;7.00;3.53;;;12.60;99.90;;;;;;8336561;28;20223;-70
2022/07/19 02:24:33;;;;;;;6.97;4.53;;;12.50;99.90;;;;;;8316211;28;20229;-64
2022/07/19 02:28:34;;;;;;;9.03;4.50;;;12.50;99.90;;;;;;8334307;28;20198;-65
2022/07/19 02:32:35;;;;;;;10.67;5.30;;;12.40;99.90;;;;;;8345017;28;20215;-65
2022/07/19 02:36:35;;;;;;;9.63;6.00;;;12.40;99.90;;;;;;8324901;28;20190;-64
2022/07/19 02:40:36;;;;;;;12.10;6.40;;;12.30;49.60;;;;;;8322975;28;20216;-64
2022/07/19 02:44:37;;;;;;;12.37;6.70;;;12.20;1.00;;;;;;8323813;28;20287;-65
2022/07/19 02:48:38;;;;;;;27.57;11.90;;;12.10;1.00;;;;;;8318234;28;20190;-65
2022/07/19 02:52:38;;;;;;;44.97;15.30;;;12.10;1.00;;;;;;8328354;28;20234;-67
2022/07/19 02:56:39;;;;;;;33.83;13.87;;;12.00;12.10;;;;;;8312337;28;20195;-64
2022/07/19 03:00:40;;;;;;;22.30;9.93;;;11.90;85.20;;;;;;8336789;28;20211;-65
2022/07/19 03:04:41;;;;;;;12.53;6.27;;;11.90;99.90;;;;;;8328262;28;20195;-72
2022/07/19 03:08:41;;;;;;;10.47;5.50;;;11.90;1.00;;;;;;8353322;28;20190;-64
2022/07/19 03:12:42;;;;;;;8.37;5.20;;;11.90;99.90;;;;;;8329195;28;20208;-64
2022/07/19 03:16:43;;;;;;;10.23;5.10;;;11.90;99.90;;;;;;8315845;28;20193;-63
2022/07/19 03:20:44;;;;;;;8.17;4.80;;;11.90;99.90;;;;;;8318485;28;20209;-64
2022/07/19 03:24:44;;;;;;;8.00;4.50;;;11.90;99.90;;;;;;8314284;28;20190;-64
2022/07/19 03:28:45;;;;;;;6.70;4.23;;;12.00;1.00;;;;;;8317407;28;20193;-65
2022/07/19 03:32:46;;;;;;;9.20;5.03;;;12.10;99.90;;;;;;8345691;28;20273;-65
2022/07/19 03:36:47;;;;;;;10.17;5.10;;;12.30;1.00;;;;;;8329200;28;20312;-67
2022/07/19 03:40:48;;;;;;;8.93;4.93;;;12.50;99.90;;;;;;8330276;28;20223;-64
2022/07/19 03:44:49;;;;;;;7.53;4.53;;;13.00;76.90;;;;;;8316892;28;20184;-64
2022/07/19 03:48:50;;;;;;;9.37;5.00;;;13.60;99.90;;;;;;8335251;28;20220;-65
2022/07/19 03:52:51;;;;;;;7.50;4.40;;;14.10;1.00;;;;;;8319582;28;20230;-65
2022/07/19 03:56:52;;;;;;;8.77;4.60;;;15.10;99.90;;;;;;8350871;28;20196;-65
2022/07/19 04:00:53;;;;;;;5.43;3.60;;;16.10;1.00;;;;;;8340652;28;20293;-63
2022/07/19 04:04:53;;;;;;;8.07;4.50;;;17.00;99.90;;;;;;8336771;28;20188;-65
2022/07/19 04:08:54;;;;;;;7.47;4.60;;;17.70;99.90;;;;;;8337047;28;20304;-64
2022/07/19 04:12:55;;;;;;;9.60;5.00;;;18.30;99.90;;;;;;8316802;28;20301;-64
2022/07/19 04:16:56;;;;;;;12.80;5.90;;;18.80;99.90;;;;;;8318080;28;20321;-63
2022/07/19 04:20:57;;;;;;;13.30;5.20;;;19.10;94.00;;;;;;8321000;28;20220;-64
2022/07/19 04:24:58;;;;;;;9.20;5.03;;;19.40;73.80;;;;;;8337605;28;20185;-64
2022/07/19 04:28:58;;;;;;;8.33;4.93;;;18.80;82.50;;;;;;8335054;28;20185;-65
2022/07/19 04:33:00;;;;;;;7.53;4.80;;;18.30;99.90;;;;;;8338921;28;20190;-64
2022/07/19 04:37:01;;;;;;;6.77;4.10;;;19.10;99.90;;;;;;8334038;28;20213;-64
2022/07/19 04:41:02;;;;;;;6.90;4.50;;;19.90;60.70;;;;;;8339363;28;20214;-64
2022/07/19 04:45:04;;;;;;;6.63;4.17;;;20.60;24.40;;;;;;8335742;28;20219;-64
2022/07/19 04:49:05;;;;;;;6.97;5.03;;;21.20;2.10;;;;;;8336917;28;20185;-64
2022/07/19 04:53:06;;;;;;;14.60;5.97;;;21.70;1.00;;;;;;8333655;28;20225;-65
2022/07/19 04:57:07;;;;;;;5.97;4.77;;;22.00;1.00;;;;;;8338465;28;20194;-64
2022/07/19 05:01:08;;;;;;;7.93;5.13;;;22.20;1.00;;;;;;8351265;28;20208;-64
2022/07/19 05:05:09;;;;;;;5.93;4.20;;;22.40;1.00;;;;;;8334122;28;20512;-65
2022/07/19 05:09:10;;;;;;;7.90;4.50;;;22.60;1.00;;;;;;8341224;28;20362;-65
2022/07/19 05:13:12;;;;;;;7.13;4.27;;;22.70;1.00;;;;;;8320114;28;20186;-66
2022/07/19 05:17:13;;;;;;;9.20;4.77;;;22.40;1.00;;;;;;8313987;28;20190;-66
2022/07/19 05:21:14;;;;;;;8.93;5.20;;;21.80;1.00;;;;;;8336218;28;20209;-66
2022/07/19 05:25:15;;;;;;;8.40;5.00;;;21.30;1.00;;;;;;8316069;28;20185;-65
2022/07/19 05:29:16;;;;;;;6.00;4.47;;;21.00;2.10;;;;;;8335244;28;20190;-65
2022/07/19 05:33:17;;;;;;;6.63;4.27;;;20.80;28.10;;;;;;8333001;28;20182;-66
2022/07/19 05:37:18;;;;;;;7.00;4.13;;;20.70;42.30;;;;;;8336825;28;20292;-65
2022/07/19 05:41:21;;;;;;;8.20;4.80;;;20.70;62.30;;;;;;8336466;28;20212;-64
2022/07/19 05:45:22;;;;;;;6.57;5.03;;;20.80;73.30;;;;;;8313804;28;20186;-66
2022/07/19 05:49:23;;;;;;;7.60;5.13;;;21.00;81.10;;;;;;8319875;28;20174;-64
2022/07/19 05:53:25;;;;;;;9.07;4.77;;;21.20;61.10;;;;;;8336425;28;20229;-67
2022/07/19 05:57:25;;;;;;;23.60;16.87;;;21.40;42.60;;;;;;8349954;28;20217;-65
2022/07/19 06:01:26;;;;;;;25.57;15.67;;;21.70;43.50;;;;;;8327555;28;20237;-62
2022/07/19 06:05:27;;;;;;;14.43;10.87;;;21.90;1.00;;;;;;8333975;28;20193;-62
2022/07/19 06:09:28;;;;;;;11.53;7.30;;;22.20;1.00;;;;;;8333235;28;20202;-65
2022/07/19 06:13:29;;;;;;;7.60;4.60;;;22.50;1.00;;;;;;8331265;28;20177;-62
2022/07/19 06:17:30;;;;;;;4.60;3.20;;;22.80;1.00;;;;;;8335967;28;20182;-65
2022/07/19 06:21:31;;;;;;;3.87;2.40;;;23.00;1.00;;;;;;8347481;28;20360;-68
2022/07/19 06:25:32;;;;;;;4.63;1.50;;;23.30;1.00;;;;;;8330312;28;20190;-65
2022/07/19 06:29:32;;;;;;;1.90;1.40;;;23.70;1.00;;;;;;8335185;28;20208;-65
2022/07/19 06:33:33;;;;;;;3.83;1.50;;;24.00;1.00;;;;;;8325298;28;20629;-65
2022/07/19 06:37:34;;;;;;;1.60;1.30;;;24.20;1.00;;;;;;8334133;28;20193;-63
2022/07/19 06:41:35;;;;;;;22.07;3.50;;;24.50;1.00;;;;;;8331611;28;20248;-67
2022/07/19 06:45:36;;;;;;;1.87;1.13;;;24.70;1.00;;;;;;8333568;28;20186;-67
2022/07/19 06:49:37;;;;;;;2.87;1.37;;;24.80;1.00;;;;;;8340750;28;20193;-66
2022/07/19 06:53:37;;;;;;;6.70;1.47;;;25.00;1.00;;;;;;8351508;28;21282;-64
2022/07/19 06:57:38;;;;;;;3.53;1.60;;;25.30;1.00;;;;;;8325732;28;20244;-63
2022/07/19 07:01:39;;;;;;;2.40;1.17;;;25.50;1.00;;;;;;8324266;28;20206;-68
2022/07/19 07:05:40;;;;;;;4.47;1.40;;;25.60;1.00;;;;;;8336612;28;20186;-61
2022/07/19 07:09:41;;;;;;;2.20;1.37;;;25.80;1.00;;;;;;8325676;28;20209;-64
2022/07/19 07:13:42;;;;;;;3.53;1.20;;;26.00;1.00;;;;;;8343991;28;20201;-68
2022/07/19 07:17:43;;;;;;;5.23;1.37;;;26.10;1.00;;;;;;8335542;28;20190;-61
2022/07/19 07:21:44;;;;;;;2.70;1.05;;;26.20;1.00;;;;;;8327163;28;20304;-63
2022/07/19 07:25:44;;;;;;;2.33;1.38;;;26.40;1.00;;;;;;8329642;28;20179;-68
2022/07/19 07:29:45;;;;;;;4.22;1.23;;;26.50;1.00;;;;;;8323649;28;20193;-65
2022/07/19 07:33:46;;;;;;;2.03;1.15;;;26.70;1.00;;;;;;8354110;28;20186;-66
2022/07/19 07:37:47;;;;;;;3.05;1.17;;;26.80;1.00;;;;;;8335665;28;20189;-65
2022/07/19 07:41:47;;;;;;;3.88;1.20;;;26.80;1.00;;;;;;8334077;28;20210;-66
2022/07/19 07:45:48;;;;;;;2.60;1.10;;;27.00;1.00;;;;;;8318142;28;20194;-67
2022/07/19 07:49:50;;;;;;;2.65;1.20;;;27.10;1.00;;;;;;8333751;28;20269;-66
2022/07/19 07:53:51;;;;;;;2.42;1.30;;;27.30;1.00;;;;;;8321256;28;20290;-66
2022/07/19 07:57:52;;;;;;;4.55;1.10;;;27.50;1.00;;;;;;8342203;28;20197;-63
2022/07/19 08:01:53;;;;;;;3.47;0.98;;;27.60;1.00;;;;;;8332940;28;20214;-64
2022/07/19 08:05:54;;;;;;;1.45;1.02;;;27.70;1.00;;;;;;8347985;28;20827;-63
2022/07/19 08:09:54;;;;;;;2.53;1.30;;;27.90;1.00;;;;;;8354782;28;20182;-64
2022/07/19 08:13:55;;;;;;;2.60;1.30;;;28.00;1.00;;;;;;8317562;28;20178;-62
2022/07/19 08:17:56;;;;;;;1.92;1.40;;;28.20;1.00;;;;;;8341474;28;20214;-72
2022/07/19 08:21:57;;;;;;;3.15;1.38;;;28.30;1.00;;;;;;8341630;28;20214;-64
2022/07/19 08:25:57;;;;;;;2.30;1.38;;;28.60;1.00;;;;;;8340799;28;20181;-63
2022/07/19 08:29:59;;;;;;;2.25;0.82;;;28.80;1.00;;;;;;8337528;28;20196;-61
2022/07/19 08:34:00;;;;;;;6.00;1.23;;;28.80;1.00;;;;;;8335703;28;20182;-62
2022/07/19 08:38:01;;;;;;;3.53;1.30;;;28.90;1.00;;;;;;8324826;28;20174;-63
2022/07/19 08:42:02;;;;;;;3.28;1.35;;;28.90;1.00;;;;;;8321872;28;20221;-67
2022/07/19 08:46:04;;;;;;;2.50;1.13;;;28.90;1.00;;;;;;8336401;28;20232;-63
2022/07/19 08:50:07;;;;;;;1.65;1.23;;;29.00;1.00;;;;;;8330909;28;20261;-65
2022/07/19 08:54:09;;;;;;;5.70;1.70;;;29.20;1.00;;;;;;8349059;28;20194;-66
2022/07/19 08:58:09;;;;;;;1.85;1.30;;;29.30;1.00;;;;;;8338673;28;20341;-64
2022/07/19 09:02:10;;;;;;;4.72;1.20;;;29.50;1.00;;;;;;8338561;28;21291;-71
2022/07/19 09:06:11;;;;;;;1.75;1.27;;;29.60;1.00;;;;;;8352469;28;20210;-67
2022/07/19 09:10:21;;;;;;;4.20;1.30;;;29.70;1.00;;;;;;8326181;28;20190;-62
2022/07/19 09:14:25;;;;;;;3.55;1.20;;;29.90;1.00;;;;;;8321272;28;20291;-65
2022/07/19 09:18:27;;;;;;;3.40;1.35;;;30.10;1.00;;;;;;8349282;28;20257;-65
2022/07/19 09:22:28;;;;;;;4.70;1.42;;;30.10;1.00;;;;;;8337874;28;20375;-63
2022/07/19 09:26:29;;;;;;;11.50;1.38;;;30.00;1.00;;;;;;8315168;28;20602;-62
2022/07/19 09:30:38;;;;;;;3.30;1.50;;;30.00;1.00;;;;;;8337811;28;20201;-65
2022/07/19 09:34:49;;;;;;;5.15;1.40;;;30.10;1.00;;;;;;8335077;28;20194;-68
2022/07/19 09:38:51;;;;;;;3.15;1.48;;;30.20;1.00;;;;;;8337638;28;20193;-64
2022/07/19 09:42:53;;;;;;;4.93;1.30;;;30.50;1.00;;;;;;8323342;28;20645;-65
2022/07/19 09:46:53;;;;;;;4.03;1.75;;;30.70;1.00;;;;;;8332395;28;21877;-69
2022/07/19 09:50:54;;;;;;;1.88;1.40;;;30.80;1.00;;;;;;8323299;28;20214;-63
2022/07/19 09:54:55;;;;;;;3.75;1.52;;;30.70;99.90;;;;;;8337542;28;20281;-63
2022/07/19 09:58:58;;;;;;;2.92;1.65;;;30.80;99.90;;;;;;8325192;28;20281;-64
2022/07/19 10:03:00;;;;;;;2.28;1.35;;;30.80;99.90;;;;;;8317053;28;20209;-64
2022/07/19 10:07:01;;;;;;;3.20;1.38;;;30.80;99.90;;;;;;8315111;28;20189;-69
2022/07/19 10:11:02;;;;;;;2.35;1.20;;;30.90;99.90;;;;;;8320482;28;20575;-67
2022/07/19 10:15:07;;;;;;;4.68;1.63;;;31.10;99.90;;;;;;8336394;28;20201;-63
2022/07/19 10:19:16;;;;;;;1.52;1.30;;;31.20;99.90;;;;;;8325348;28;20212;-64
2022/07/19 10:23:26;;;;;;;2.30;1.50;;;31.30;99.90;;;;;;8332504;28;20201;-65
2022/07/19 10:27:27;;;;;;;3.05;1.60;;;31.50;99.90;;;;;;8334791;28;20305;-65
2022/07/19 10:31:30;;;;;;;1.63;1.38;;;31.80;99.90;;;;;;8320233;28;20182;-62
2022/07/19 10:35:32;;;;;;;2.55;1.40;;;31.90;99.90;;;;;;8317701;28;20215;-68
2022/07/19 10:39:35;;;;;;;3.78;1.60;;;32.00;99.90;;;;;;8331060;28;20217;-66
2022/07/19 10:43:36;;;;;;;2.65;1.40;;;32.20;99.90;;;;;;8333021;28;20242;-63
2022/07/19 10:47:39;;;;;;;4.47;1.20;;;32.30;99.90;;;;;;8319420;28;20556;-64
2022/07/19 10:51:41;;;;;;;3.33;1.60;;;32.10;99.90;;;;;;8326099;28;20217;-67
2022/07/19 10:55:41;;;;;;;3.05;1.67;;;32.10;99.90;;;;;;8342833;28;20700;-64
2022/07/19 10:59:42;;;;;;;2.63;1.38;;;32.20;99.90;;;;;;8330248;28;20193;-65
2022/07/19 11:03:43;;;;;;;2.10;1.20;;;32.30;99.90;;;;;;8331434;28;20348;-64
2022/07/19 11:07:49;;;;;;;5.97;1.33;;;32.30;99.90;;;;;;8339960;28;20186;-66
2022/07/19 11:11:49;;;;;;;2.67;1.52;;;32.40;99.90;;;;;;8338518;28;20193;-60
2022/07/19 11:16:00;;;;;;;6.18;1.70;;;32.60;99.90;;;;;;8345581;28;20603;-62
2022/07/19 11:20:11;;;;;;;2.60;1.27;;;32.60;99.90;;;;;;8343819;28;20182;-65
2022/07/19 11:24:12;;;;;;;5.43;1.85;;;32.40;99.90;;;;;;8321284;28;20237;-65
2022/07/19 11:28:23;;;;;;;2.92;1.55;;;32.20;99.90;;;;;;8340936;28;20185;-62
2022/07/19 11:32:24;;;;;;;2.25;1.60;;;32.30;99.90;;;;;;8338018;28;20281;-65
2022/07/19 11:36:27;;;;;;;3.75;1.58;;;32.60;99.90;;;;;;8336274;28;20200;-63
2022/07/19 11:40:37;;;;;;;3.67;1.70;;;32.60;99.90;;;;;;8338204;28;20331;-65
2022/07/19 11:44:38;;;;;;;3.92;1.70;;;32.70;99.90;;;;;;8320476;28;20244;-66
2022/07/19 11:48:38;;;;;;;3.03;1.30;;;32.80;99.90;;;;;;8323491;28;20264;-66
2022/07/19 11:52:46;;;;;;;3.17;1.95;;;33.00;99.90;;;;;;8328645;28;20228;-69
2022/07/19 11:56:47;;;;;;;4.03;1.80;;;33.00;99.90;;;;;;8329863;28;20376;-66
2022/07/19 12:00:48;;;;;;;2.78;1.88;;;33.00;99.90;;;;;;8341501;28;20210;-64
2022/07/19 12:04:49;;;;;;;2.95;1.90;;;33.10;99.90;;;;;;8340021;28;20222;-62
2022/07/19 12:08:50;;;;;;;2.60;1.50;;;33.30;99.90;;;;;;8358678;28;20197;-68
2022/07/19 12:12:51;;;;;;;2.88;1.63;;;33.50;99.90;;;;;;8342533;28;20182;-65
2022/07/19 12:17:18;;;;;;;4.82;1.60;;;33.50;99.90;;;;;;8325837;28;20548;-65
2022/07/19 12:21:22;;;;;;;3.35;1.38;;;33.40;99.90;;;;;;8325504;28;20214;-64
2022/07/19 12:25:36;;;;;;;2.03;1.50;;;33.50;99.90;;;;;;8323930;28;20186;-64
2022/07/19 12:29:48;;;;;;;5.53;1.92;;;33.60;99.90;;;;;;8326457;28;20264;-62
2022/07/19 12:33:59;;;;;;;3.40;1.80;;;33.80;99.90;;;;;;8323395;28;20567;-68
2022/07/19 12:38:04;;;;;;;4.18;1.85;;;33.80;99.90;;;;;;8347879;28;20222;-68
2022/07/19 12:42:06;;;;;;;4.00;1.90;;;33.70;99.90;;;;;;8329303;28;20270;-62
2022/07/19 12:46:07;;;;;;;8.38;2.10;;;33.60;99.90;;;;;;8322280;28;20185;-62
2022/07/19 12:50:09;;;;;;;3.50;1.65;;;33.50;99.90;;;;;;8336407;28;20285;-65
2022/07/19 12:54:11;;;;;;;4.13;1.60;;;33.40;99.90;;;;;;8337976;28;20205;-65
2022/07/19 12:59:38;;;;;;;3.78;1.70;;;33.50;99.90;;;;;;8324011;28;20404;-68
2022/07/19 13:02:35;;;;;;;5.32;1.88;;;33.60;99.90;;;;;;8334058;28;20226;-63
2022/07/19 13:06:36;;;;;;;3.97;1.88;;;33.60;99.90;;;;;;8332891;28;20189;-63
2022/07/19 13:10:37;;;;;;;2.85;1.67;;;33.40;99.90;;;;;;8337894;28;20591;-63
2022/07/19 13:14:38;;;;;;;5.35;1.88;;;33.30;99.90;;;;;;8341624;28;20190;-62
2022/07/19 13:18:39;;;;;;;4.82;1.85;;;33.40;99.90;;;;;;8318709;28;20186;-60
2022/07/19 13:22:41;;;;;;;4.38;2.08;;;33.60;99.90;;;;;;8338648;28;20232;-66
2022/07/19 13:26:42;;;;;;;2.80;1.60;;;33.70;99.90;;;;;;8323009;28;20249;-64
2022/07/19 13:30:42;;;;;;;3.45;1.67;;;33.80;99.90;;;;;;8338400;28;20190;-64
2022/07/19 13:34:43;;;;;;;4.50;2.00;;;34.00;99.90;;;;;;8335140;28;20187;-63
2022/07/19 13:38:44;;;;;;;6.55;1.40;;;34.20;99.90;;;;;;8315354;28;20609;-63
2022/07/19 13:42:46;;;;;;;4.50;2.00;;;34.30;99.90;;;;;;8334226;28;20217;-65
2022/07/19 13:46:47;;;;;;;6.50;2.13;;;34.10;99.90;;;;;;8316418;28;20213;-61
2022/07/19 13:50:48;;;;;;;5.10;2.15;;;34.00;99.90;;;;;;8336523;28;20409;-64
2022/07/19 13:54:48;;;;;;;5.85;1.67;;;34.20;99.90;;;;;;8317899;28;20209;-64
2022/07/19 13:58:50;;;;;;;5.10;2.05;;;34.40;99.90;;;;;;8338423;28;20186;-67
2022/07/19 14:02:51;;;;;;;6.68;2.10;;;34.30;99.90;;;;;;8351640;28;20210;-64
2022/07/19 14:06:52;;;;;;;5.60;1.95;;;34.40;99.90;;;;;;8339603;28;20192;-63
2022/07/19 14:10:52;;;;;;;4.88;1.63;;;34.30;99.90;;;;;;8322457;28;20616;-62
2022/07/19 14:14:53;;;;;;;5.45;2.00;;;34.50;99.90;;;;;;8350292;28;20224;-62
2022/07/19 14:18:55;;;;;;;5.72;1.80;;;34.50;99.90;;;;;;8325279;28;20189;-66
2022/07/19 14:22:56;;;;;;;4.65;2.20;;;34.20;99.90;;;;;;8330333;28;20202;-61
2022/07/19 14:26:57;;;;;;;3.50;2.00;;;34.30;99.90;;;;;;8330519;28;20698;-66
2022/07/19 14:30:58;;;;;;;2.90;1.77;;;34.30;99.90;;;;;;8310592;28;20194;-65
2022/07/19 14:34:59;;;;;;;7.38;2.13;;;34.40;99.90;;;;;;8327701;28;20213;-62
2022/07/19 14:38:59;;;;;;;4.88;2.30;;;34.60;99.90;;;;;;8348636;28;20198;-63
2022/07/19 14:43:00;;;;;;;4.40;2.15;;;34.60;99.90;;;;;;8347165;28;20209;-62
2022/07/19 14:47:01;;;;;;;3.28;1.92;;;34.50;99.90;;;;;;8327738;28;20256;-64
2022/07/19 14:51:03;;;;;;;4.40;2.40;;;34.60;99.90;;;;;;8328624;28;20233;-66
2022/07/19 14:55:04;;;;;;;6.88;2.15;;;34.80;99.90;;;;;;8309942;28;20209;-64
2022/07/19 14:59:05;;;;;;;4.63;1.90;;;34.80;99.90;;;;;;8332642;28;20186;-67
2022/07/19 15:03:07;;;;;;;3.83;2.03;;;34.90;99.90;;;;;;8329178;28;20218;-63
2022/07/19 15:07:08;;;;;;;2.25;1.90;;;35.00;99.90;;;;;;8311775;28;20187;-64
2022/07/19 15:11:09;;;;;;;4.35;2.40;;;35.20;99.90;;;;;;8325445;28;20186;-60
2022/07/19 15:15:10;;;;;;;4.82;2.00;;;35.10;99.90;;;;;;8332303;28;20178;-61
2022/07/19 15:19:11;;;;;;;5.40;2.60;;;35.20;99.90;;;;;;8345366;28;20269;-62
2022/07/19 15:23:12;;;;;;;5.88;2.67;;;35.30;99.90;;;;;;8332448;28;20708;-65
2022/07/19 15:27:12;;;;;;;3.45;2.15;;;35.20;99.90;;;;;;8326333;28;20293;-60
2022/07/19 15:31:13;;;;;;;6.65;2.40;;;35.20;99.90;;;;;;8330191;28;20182;-66
2022/07/19 15:35:14;;;;;;;6.10;2.35;;;35.20;99.90;;;;;;8313649;28;20193;-63
2022/07/19 15:39:15;;;;;;;2.67;2.25;;;35.00;99.90;;;;;;8335443;28;20197;-60
2022/07/19 15:43:17;;;;;;;6.80;2.33;;;34.90;99.90;;;;;;8316583;28;20216;-60
2022/07/19 15:47:18;;;;;;;6.75;2.67;;;35.20;99.90;;;;;;8335725;28;20210;-68
2022/07/19 15:51:19;;;;;;;5.68;2.45;;;35.30;99.90;;;;;;8321882;28;20252;-61
2022/07/19 15:55:20;;;;;;;4.80;2.40;;;35.40;99.90;;;;;;8336066;28;20191;-62
2022/07/19 15:59:20;;;;;;;6.95;2.35;;;35.50;99.90;;;;;;8318838;28;20186;-61
2022/07/19 16:03:21;;;;;;;4.22;2.22;;;35.40;99.90;;;;;;8351316;28;20213;-62
2022/07/19 16:07:22;;;;;;;3.13;2.35;;;35.20;99.90;;;;;;8322861;28;20225;-61
2022/07/19 16:11:23;;;;;;;5.32;2.50;;;35.20;99.90;;;;;;8317894;28;20744;-60
2022/07/19 16:15:25;;;;;;;4.05;2.47;;;35.10;99.90;;;;;;8364606;28;20213;-61
2022/07/19 16:19:25;;;;;;;5.18;2.38;;;35.10;99.90;;;;;;8344950;28;20261;-62
2022/07/19 16:23:27;;;;;;;8.32;3.88;;;34.80;99.90;;;;;;8338490;28;20206;-62
2022/07/19 16:27:28;;;;;;;6.70;2.40;;;34.80;99.90;;;;;;8341581;28;20190;-68
2022/07/19 16:31:30;;;;;;;14.38;3.00;;;34.80;99.90;;;;;;8340696;28;20224;-61
2022/07/19 16:35:31;;;;;;;4.32;2.30;;;34.80;99.90;;;;;;8335267;28;20186;-61
2022/07/19 16:39:32;;;;;;;4.75;2.63;;;34.80;99.90;;;;;;8333218;28;20186;-67
2022/07/19 16:43:33;;;;;;;3.88;2.60;;;34.70;99.90;;;;;;8335430;28;20210;-61
2022/07/19 16:47:34;;;;;;;4.68;2.30;;;34.60;99.90;;;;;;8320844;28;20210;-63
2022/07/19 16:51:35;;;;;;;6.38;2.63;;;34.60;99.90;;;;;;8330193;28;20213;-63
2022/07/19 16:55:36;;;;;;;3.00;2.20;;;34.40;99.90;;;;;;8320160;28;20214;-61
2022/07/19 16:59:37;;;;;;;4.28;2.33;;;34.30;99.90;;;;;;8323642;28;20243;-62
2022/07/19 17:03:38;;;;;;;5.88;2.78;;;34.10;99.90;;;;;;8317602;28;20249;-60
2022/07/19 17:07:39;;;;;;;3.00;2.08;;;34.00;99.90;;;;;;8337883;28;20182;-63
2022/07/19 17:11:39;;;;;;;4.68;2.80;;;33.90;99.90;;;;;;8337822;28;20186;-67
2022/07/19 17:15:40;;;;;;;4.40;2.40;;;33.80;99.90;;;;;;8322937;28;20189;-60
2022/07/19 17:19:41;;;;;;;8.52;2.30;;;33.70;99.90;;;;;;8326772;28;20202;-62
2022/07/19 17:23:43;;;;;;;4.90;2.63;;;33.60;99.90;;;;;;8335120;28;20284;-61
2022/07/19 17:27:45;;;;;;;4.88;2.38;;;33.60;99.90;;;;;;8334121;28;20186;-65
2022/07/19 17:31:46;;;;;;;6.40;2.63;;;34.00;99.90;;;;;;8321328;28;20201;-61
2022/07/19 17:35:47;;;;;;;6.85;2.67;;;34.50;99.90;;;;;;8335949;28;20264;-65
2022/07/19 17:39:48;;;;;;;2.63;2.28;;;34.90;99.90;;;;;;8315686;28;20185;-64
2022/07/19 17:43:49;;;;;;;3.90;2.40;;;35.30;99.90;;;;;;8336682;28;20229;-68
2022/07/19 17:47:50;;;;;;;4.53;2.40;;;35.70;99.90;;;;;;8352899;28;20181;-64
2022/07/19 17:51:51;;;;;;;5.07;2.40;;;36.00;99.90;;;;;;8316565;28;20218;-65
2022/07/19 17:55:51;;;;;;;3.15;2.08;;;36.20;99.90;;;;;;8307548;28;20192;-65
2022/07/19 17:59:52;;;;;;;4.72;2.33;;;36.30;99.90;;;;;;8333389;28;20197;-64
2022/07/19 18:03:53;;;;;;;6.18;2.95;;;36.30;99.90;;;;;;8323415;28;20707;-67
2022/07/19 18:07:54;;;;;;;7.28;2.55;;;36.20;99.90;;;;;;8335153;28;20192;-65
2022/07/19 18:11:55;;;;;;;2.88;2.25;;;36.10;99.90;;;;;;8316834;28;20477;-63
2022/07/19 18:15:56;;;;;;;9.30;2.42;;;35.80;99.90;;;;;;8312296;28;20213;-62
2022/07/19 18:19:57;;;;;;;6.75;2.17;;;34.60;99.90;;;;;;8319535;28;20703;-62
2022/07/19 18:24:00;;;;;;;3.25;2.30;;;33.40;99.90;;;;;;8335312;28;20245;-64
2022/07/19 18:28:01;;;;;;;2.60;2.30;;;33.20;99.90;;;;;;8321667;28;20185;-65
2022/07/19 18:32:02;;;;;;;3.70;2.38;;;33.10;99.90;;;;;;8316030;28;20189;-65
2022/07/19 18:36:03;;;;;;;2.92;2.10;;;32.90;99.90;;;;;;8336747;28;20562;-68
2022/07/19 18:40:06;;;;;;;3.95;2.20;;;32.50;99.90;;;;;;8329510;28;20194;-66
2022/07/19 18:44:06;;;;;;;2.13;1.92;;;32.10;99.90;;;;;;8314267;28;20225;-68
2022/07/19 18:48:07;;;;;;;3.22;2.35;;;31.50;99.90;;;;;;8348961;28;20303;-64
2022/07/19 18:52:08;;;;;;;3.47;2.63;;;30.80;99.90;;;;;;8334573;28;20224;-68
2022/07/19 18:56:09;;;;;;;3.83;2.30;;;30.00;99.90;;;;;;8319598;28;20190;-64
2022/07/19 19:00:15;;;;;;;3.50;2.38;;;29.20;99.90;;;;;;8330378;28;20197;-64
2022/07/19 19:04:16;;;;;;;2.38;2.17;;;28.60;99.90;;;;;;8337122;28;20285;-68
2022/07/19 19:08:17;;;;;;;2.38;2.17;;;28.00;99.90;;;;;;8324876;28;20304;-70
2022/07/19 19:12:18;;;;;;;3.13;2.20;;;27.50;1.00;;;;;;8319910;28;20187;-68
2022/07/19 19:16:19;;;;;;;2.25;1.90;;;27.10;1.00;;;;;;8326159;28;20186;-68
2022/07/19 19:20:20;;;;;;;3.88;2.55;;;26.80;1.00;;;;;;8321428;28;20186;-68
2022/07/19 19:24:20;;;;;;;3.23;2.50;;;26.50;1.00;;;;;;8352667;28;20213;-66
2022/07/19 19:28:21;;;;;;;3.20;2.47;;;26.20;1.00;;;;;;8341268;28;20189;-67
2022/07/19 19:32:22;;;;;;;3.07;2.43;;;25.90;1.00;;;;;;8322722;28;20285;-66
2022/07/19 19:36:23;;;;;;;5.07;3.53;;;25.60;1.00;;;;;;8337865;28;20217;-65
2022/07/19 19:40:24;;;;;;;9.73;6.70;;;25.40;1.00;;;;;;8350962;28;20182;-68
2022/07/19 19:44:25;;;;;;;8.33;6.20;;;25.20;1.00;;;;;;8355719;28;20571;-67
2022/07/19 19:48:25;;;;;;;6.77;5.67;;;25.00;1.00;;;;;;8327111;28;20190;-70
2022/07/19 19:52:26;;;;;;;5.73;4.87;;;24.80;1.00;;;;;;8335559;28;20296;-67
2022/07/19 19:56:27;;;;;;;3.97;3.57;;;24.50;1.00;;;;;;8317580;28;20198;-69
2022/07/19 20:00:28;;;;;;;3.63;3.17;;;24.10;1.00;;;;;;8335863;28;20193;-67
2022/07/19 20:04:29;;;;;;;3.33;3.03;;;23.80;1.00;;;;;;8321214;28;20187;-67
2022/07/19 20:08:31;;;;;;;2.93;2.47;;;23.60;1.00;;;;;;8326691;28;20190;-66
2022/07/19 20:12:32;;;;;;;4.83;2.80;;;23.40;1.00;;;;;;8344458;28;20198;-66
2022/07/19 20:16:33;;;;;;;5.30;3.10;;;23.30;1.00;;;;;;8321985;28;20212;-66
2022/07/19 20:20:34;;;;;;;7.43;3.77;;;23.20;1.00;;;;;;8321791;28;20186;-68
2022/07/19 20:24:35;;;;;;;7.20;4.53;;;23.10;1.00;;;;;;8342348;28;20314;-66
2022/07/19 20:28:36;;;;;;;5.30;4.33;;;23.00;1.00;;;;;;8340969;28;20182;-69
2022/07/19 20:32:37;;;;;;;6.10;3.47;;;22.80;1.00;;;;;;8336272;28;20277;-68
2022/07/19 20:36:38;;;;;;;4.43;3.10;;;22.60;1.00;;;;;;8320350;28;20200;-66
2022/07/19 20:40:39;;;;;;;4.70;2.93;;;22.40;1.00;;;;;;8325541;28;20193;-65
2022/07/19 20:44:40;;;;;;;4.53;3.20;;;22.20;1.00;;;;;;8326300;28;20268;-67
2022/07/19 20:48:40;;;;;;;4.07;3.10;;;22.10;1.00;;;;;;8323861;28;20179;-66
2022/07/19 20:52:41;;;;;;;3.70;2.87;;;21.90;1.00;;;;;;8322361;28;20225;-67
2022/07/19 20:56:42;;;;;;;4.13;3.03;;;21.80;1.00;;;;;;8341335;28;20202;-67
2022/07/19 21:00:43;;;;;;;3.77;2.80;;;21.70;1.00;;;;;;8327545;28;20195;-66
2022/07/19 21:04:44;;;;;;;4.27;2.83;;;21.60;1.00;;;;;;8329849;28;20182;-66